Rock Creek, Canada
Current Conditions -  °F | °C
As of 8:00 PM on Saturday 20 Dec 2014 (Local Time) from CYYF Reporting Station
Overcast Overcast  
Wind Chill: 30°   Ceiling: 2000
Heat Index: 39°   Visibility: 15mi
Dew Point: 36°   Wind: 20mph
Humidity: 87%   Direction: 160°SSE
Pressure: 29.45"   Gusts: 31mph
Location:  49.07°N, 118.98°W
Report Text: CYYF 210400Z 16017G27KT 15SM BKN020 OVC040 04/02 A2945 RMK SC6SC2 SLP983
Loading
Personal Weather Stations






























Interactive Weather Map New forecast layout! Learn more

10-Day Weather Forecast

Advertisements
Track Severe Weather on mobile